createdAt,value
2018-12-21T03:00:41.271Z,9.30
2018-12-21T03:03:09.401Z,9.20
2018-12-21T03:05:37.523Z,9.20
2018-12-21T03:08:05.916Z,9.20
2018-12-21T03:10:34.280Z,9.30
2018-12-21T03:13:03.576Z,9.50
2018-12-21T03:15:31.763Z,9.60
2018-12-21T03:18:00.123Z,9.60
2018-12-21T03:20:29.968Z,9.40
2018-12-21T03:22:58.136Z,9.40
2018-12-21T03:25:26.339Z,9.40
2018-12-21T03:27:54.475Z,9.50
2018-12-21T03:30:22.640Z,9.30
2018-12-21T03:32:50.788Z,9.30
2018-12-21T03:35:18.968Z,9.40
2018-12-21T03:37:47.125Z,9.40
2018-12-21T03:40:15.513Z,9.20
2018-12-21T03:42:43.671Z,9.10
2018-12-21T03:45:11.824Z,9.20
2018-12-21T03:47:39.951Z,9.20
2018-12-21T03:50:08.351Z,9.10
2018-12-21T03:52:36.477Z,9.00
2018-12-21T03:55:04.926Z,9.10
2018-12-21T03:57:33.114Z,9.10
2018-12-21T04:00:03.372Z,9.00
2018-12-21T04:02:32.579Z,9.00
2018-12-21T04:05:00.804Z,9.10
2018-12-21T04:07:31.068Z,9.30
2018-12-21T04:09:59.276Z,9.20
2018-12-21T04:12:27.727Z,9.30
2018-12-21T04:14:55.962Z,9.10
2018-12-21T04:17:24.078Z,9.10
2018-12-21T04:19:52.223Z,9.20
2018-12-21T04:22:20.665Z,9.30
2018-12-21T04:24:48.801Z,9.40
2018-12-21T04:27:17.153Z,9.40
2018-12-21T04:29:45.664Z,9.30
2018-12-21T04:32:14.784Z,9.30
2018-12-21T04:34:42.905Z,9.20
2018-12-21T04:37:11.310Z,9.10
2018-12-21T04:39:39.719Z,9.10
2018-12-21T04:42:09.818Z,9.10
2018-12-21T04:44:38.037Z,9.00
2018-12-21T04:47:07.264Z,8.90
2018-12-21T04:49:35.400Z,8.80
2018-12-21T04:52:03.544Z,8.70
2018-12-21T04:54:31.708Z,8.70
2018-12-21T04:56:59.853Z,8.60
2018-12-21T04:59:28.023Z,8.70
2018-12-21T05:01:56.160Z,8.70
2018-12-21T05:04:24.513Z,8.70
2018-12-21T05:06:52.743Z,8.70
2018-12-21T05:09:20.869Z,8.50
2018-12-21T05:11:49.057Z,8.60
2018-12-21T05:14:17.209Z,8.70
2018-12-21T05:16:46.237Z,8.60
2018-12-21T05:19:14.391Z,8.50
2018-12-21T05:21:42.556Z,8.50
2018-12-21T05:24:10.944Z,8.50
2018-12-21T05:26:40.097Z,8.60
2018-12-21T05:29:08.229Z,8.60
2018-12-21T05:31:36.386Z,8.60
2018-12-21T05:34:04.541Z,8.70
2018-12-21T05:36:33.842Z,8.80
2018-12-21T05:39:04.725Z,8.70
2018-12-21T05:41:33.636Z,8.80
2018-12-21T05:44:04.131Z,9.00
2018-12-21T05:46:32.312Z,8.90
2018-12-21T05:49:00.677Z,9.10
2018-12-21T05:51:29.968Z,9.10
2018-12-21T05:53:58.130Z,9.00
2018-12-21T05:56:26.635Z,9.00
2018-12-21T05:58:54.871Z,9.00
2018-12-21T06:01:23.229Z,8.90
2018-12-21T06:03:51.457Z,8.90
2018-12-21T06:06:19.641Z,8.70
2018-12-21T06:08:47.813Z,8.50
2018-12-21T06:11:15.944Z,8.60
2018-12-21T06:13:44.092Z,8.50
2018-12-21T06:16:12.321Z,8.70
2018-12-21T06:18:40.818Z,8.80
2018-12-21T06:21:08.980Z,8.80
2018-12-21T06:23:37.115Z,8.90
2018-12-21T06:26:05.262Z,8.90
2018-12-21T06:28:33.437Z,8.80
2018-12-21T06:31:03.326Z,8.90
2018-12-21T06:33:31.469Z,8.80
2018-12-21T06:35:59.645Z,8.80
2018-12-21T06:38:28.038Z,8.90
2018-12-21T06:40:56.417Z,9.00
2018-12-21T06:43:24.591Z,8.90
2018-12-21T06:45:52.768Z,8.80
2018-12-21T06:48:20.911Z,9.00
2018-12-21T06:50:49.025Z,9.00
2018-12-21T06:53:18.090Z,9.00
2018-12-21T06:55:46.513Z,9.10
2018-12-21T06:58:14.669Z,9.10
2018-12-21T07:00:43.056Z,9.10
2018-12-21T07:03:17.069Z,9.00
2018-12-21T07:05:41.428Z,8.80
2018-12-21T07:08:09.624Z,8.70
2018-12-21T07:10:37.978Z,8.50
2018-12-21T07:13:06.136Z,8.40
2018-12-21T07:15:34.525Z,8.40
2018-12-21T07:18:04.013Z,8.20
2018-12-21T07:20:32.167Z,8.30
2018-12-21T07:23:00.322Z,8.40
2018-12-21T07:25:29.908Z,8.50
2018-12-21T07:27:58.088Z,8.50
2018-12-21T07:30:26.230Z,8.60
2018-12-21T07:32:54.446Z,8.50
2018-12-21T07:35:22.604Z,8.40
2018-12-21T07:37:50.724Z,8.40
2018-12-21T07:40:18.842Z,8.30
2018-12-21T07:42:46.997Z,8.30
2018-12-21T07:45:15.167Z,8.20
2018-12-21T07:47:43.294Z,8.20
2018-12-21T07:50:11.817Z,8.30
2018-12-21T07:52:39.975Z,8.40
2018-12-21T07:55:08.125Z,8.40
2018-12-21T07:57:36.526Z,8.40
2018-12-21T08:00:08.055Z,8.50
2018-12-21T08:02:36.227Z,8.60
2018-12-21T08:05:05.206Z,8.80
2018-12-21T08:07:33.652Z,8.70
2018-12-21T08:10:04.681Z,8.40
2018-12-21T08:12:32.855Z,8.40
2018-12-21T08:15:03.180Z,8.60
2018-12-21T08:17:31.324Z,8.80
2018-12-21T08:19:59.479Z,8.70
2018-12-21T08:22:27.632Z,8.60
2018-12-21T08:24:56.028Z,8.40
2018-12-21T08:27:24.168Z,8.20
2018-12-21T08:29:52.345Z,8.20
2018-12-21T08:32:20.504Z,8.20
2018-12-21T08:34:48.890Z,8.20
2018-12-21T08:37:17.016Z,8.20
2018-12-21T08:39:45.416Z,8.20
2018-12-21T08:42:13.920Z,7.90
2018-12-21T08:44:42.308Z,7.90
2018-12-21T08:47:10.425Z,7.90
2018-12-21T08:49:38.584Z,8.10
2018-12-21T08:52:07.221Z,8.20
2018-12-21T08:54:35.357Z,8.30
2018-12-21T08:57:03.523Z,8.30
2018-12-21T08:59:31.912Z,8.30
2018-12-21T09:02:00.130Z,8.30
2018-12-21T09:04:32.272Z,8.40
2018-12-21T09:07:01.536Z,8.40
2018-12-21T09:09:29.664Z,8.50
2018-12-21T09:11:58.129Z,8.40
2018-12-21T09:14:26.248Z,8.30
2018-12-21T09:16:54.400Z,8.30
2018-12-21T09:19:22.547Z,8.40
2018-12-21T09:21:51.642Z,8.40
2018-12-21T09:24:21.134Z,8.40
2018-12-21T09:26:57.082Z,8.20
2018-12-21T09:29:26.973Z,8.10
2018-12-21T09:31:55.587Z,8.10
2018-12-21T09:34:23.723Z,7.90
2018-12-21T09:36:51.845Z,7.90
2018-12-21T09:39:20.130Z,7.70
2018-12-21T09:41:48.273Z,7.60
2018-12-21T09:44:16.399Z,7.80
2018-12-21T09:46:44.562Z,7.90
2018-12-21T09:49:12.687Z,8.00
2018-12-21T09:51:40.822Z,8.10
2018-12-21T09:54:10.010Z,7.90
2018-12-21T09:56:38.524Z,7.80
2018-12-21T09:59:08.065Z,7.90
2018-12-21T10:01:36.437Z,8.00
2018-12-21T10:04:04.561Z,8.20
2018-12-21T10:06:32.727Z,8.20
2018-12-21T10:09:00.875Z,8.00
2018-12-21T10:11:29.559Z,8.00
2018-12-21T10:13:57.728Z,8.20
2018-12-21T10:16:25.850Z,8.10
2018-12-21T10:18:53.974Z,8.00
2018-12-21T10:21:22.138Z,8.00
2018-12-21T10:23:50.592Z,8.00
2018-12-21T10:26:18.752Z,8.00
2018-12-21T10:28:46.883Z,7.90
2018-12-21T10:31:15.054Z,8.00
2018-12-21T10:33:43.183Z,8.00
2018-12-21T10:36:11.324Z,7.90
2018-12-21T10:38:39.472Z,7.80
2018-12-21T10:41:07.622Z,7.90
2018-12-21T10:43:35.749Z,7.90
2018-12-21T10:46:04.967Z,7.80
2018-12-21T10:48:37.318Z,7.80
2018-12-21T10:51:04.037Z,7.80
2018-12-21T10:53:32.177Z,7.90
2018-12-21T10:56:00.377Z,7.90
2018-12-21T10:58:29.886Z,8.00
2018-12-21T11:00:58.054Z,8.30
2018-12-21T11:03:26.314Z,8.40
2018-12-21T11:05:54.849Z,8.40
2018-12-21T11:08:22.999Z,8.30
2018-12-21T11:10:52.065Z,8.20
2018-12-21T11:13:20.250Z,8.40
2018-12-21T11:15:48.385Z,8.40
2018-12-21T11:18:16.568Z,8.40
2018-12-21T11:20:44.696Z,8.40
2018-12-21T11:23:12.871Z,8.50
2018-12-21T11:25:41.001Z,8.50
2018-12-21T11:28:09.127Z,8.40
2018-12-21T11:30:37.533Z,8.40
2018-12-21T11:33:05.674Z,8.50
2018-12-21T11:35:33.820Z,8.50
2018-12-21T11:38:02.865Z,8.50
2018-12-21T11:40:30.990Z,8.40
2018-12-21T11:42:59.121Z,8.60
2018-12-21T11:45:27.306Z,8.60
2018-12-21T11:47:55.435Z,8.60
2018-12-21T11:50:23.579Z,8.70
2018-12-21T11:52:51.750Z,8.70
2018-12-21T11:55:19.947Z,8.70
2018-12-21T11:57:48.065Z,8.80
2018-12-21T12:00:16.246Z,9.00
2018-12-21T12:02:44.378Z,9.00
2018-12-21T12:05:12.502Z,9.00
2018-12-21T12:07:40.680Z,9.20
2018-12-21T12:10:09.784Z,9.30
2018-12-21T12:12:39.297Z,9.40
2018-12-21T12:15:07.849Z,9.50
2018-12-21T12:17:35.974Z,9.60
2018-12-21T12:20:06.023Z,9.60
2018-12-21T12:22:34.235Z,9.60
2018-12-21T12:25:05.631Z,9.60
2018-12-21T12:27:33.769Z,9.40
2018-12-21T12:30:02.493Z,9.40
2018-12-21T12:32:30.662Z,9.40
2018-12-21T12:34:58.819Z,9.40
2018-12-21T12:37:26.944Z,9.30
2018-12-21T12:39:55.137Z,9.40
2018-12-21T12:42:23.286Z,9.60
2018-12-21T12:44:51.414Z,9.70
2018-12-21T12:47:19.595Z,9.80
2018-12-21T12:49:47.733Z,10.00
2018-12-21T12:52:15.862Z,9.80
2018-12-21T12:54:44.036Z,9.80
2018-12-21T12:57:12.180Z,9.80
2018-12-21T12:59:40.380Z,9.60
2018-12-21T13:02:08.561Z,9.60
2018-12-21T13:04:36.691Z,9.70
2018-12-21T13:07:04.902Z,9.70
2018-12-21T13:09:33.086Z,10.10
2018-12-21T13:12:02.900Z,10.60
2018-12-21T13:14:31.040Z,10.60
2018-12-21T13:16:59.211Z,10.50
2018-12-21T13:19:27.351Z,10.40
2018-12-21T13:21:55.490Z,10.20
2018-12-21T13:24:23.682Z,10.00
2018-12-21T13:26:51.873Z,10.00
2018-12-21T13:29:20.063Z,10.10
2018-12-21T13:31:48.246Z,10.10
2018-12-21T13:34:16.547Z,10.00
2018-12-21T13:36:44.696Z,10.20
2018-12-21T13:39:12.956Z,10.20
2018-12-21T13:41:41.125Z,10.20
2018-12-21T13:44:09.327Z,10.30
2018-12-21T13:46:37.510Z,10.40
2018-12-21T13:49:05.686Z,10.60
2018-12-21T13:51:33.831Z,10.60
2018-12-21T13:54:04.130Z,10.40
2018-12-21T13:56:32.302Z,10.20
2018-12-21T13:59:00.537Z,10.20
2018-12-21T14:01:30.455Z,10.20
2018-12-21T14:03:58.649Z,10.30
2018-12-21T14:06:26.791Z,10.30
2018-12-21T14:08:54.970Z,10.50
2018-12-21T14:11:23.462Z,10.50
2018-12-21T14:13:51.585Z,10.30
2018-12-21T14:16:19.718Z,10.40
2018-12-21T14:18:48.111Z,10.40
2018-12-21T14:21:16.246Z,10.50
2018-12-21T14:23:44.392Z,10.60
2018-12-21T14:26:12.572Z,10.60
2018-12-21T14:28:42.592Z,10.60
2018-12-21T14:31:10.959Z,10.60
2018-12-21T14:33:39.114Z,10.70
2018-12-21T14:36:07.322Z,10.70
2018-12-21T14:38:35.526Z,10.60
2018-12-21T14:41:03.655Z,10.60
2018-12-21T14:43:31.836Z,10.50
2018-12-21T14:46:00.028Z,10.50
2018-12-21T14:48:30.059Z,10.60
2018-12-21T14:50:58.245Z,10.60
2018-12-21T14:53:26.378Z,10.70
2018-12-21T14:55:54.514Z,10.80
2018-12-21T14:58:22.708Z,11.00
2018-12-21T15:00:50.843Z,10.90
2018-12-21T15:03:18.983Z,10.90
2018-12-21T15:05:47.246Z,11.00
2018-12-21T15:08:15.377Z,10.90
2018-12-21T15:10:43.697Z,11.00
2018-12-21T15:13:11.828Z,11.10
2018-12-21T15:15:39.966Z,11.20
2018-12-21T15:18:08.164Z,11.20
2018-12-21T15:20:36.298Z,11.30
2018-12-21T15:23:04.490Z,11.30
2018-12-21T15:25:32.631Z,11.40
2018-12-21T15:28:00.767Z,11.50
2018-12-21T15:30:30.361Z,11.60
2018-12-21T15:32:58.503Z,11.60
2018-12-21T15:35:26.636Z,11.50
2018-12-21T15:37:54.825Z,11.50
2018-12-21T15:40:23.017Z,11.50
2018-12-21T15:42:51.209Z,11.60
2018-12-21T15:45:19.397Z,11.50
2018-12-21T15:47:47.566Z,11.50
2018-12-21T15:50:15.715Z,11.50
2018-12-21T15:52:43.900Z,11.60
2018-12-21T15:55:12.071Z,11.50
2018-12-21T15:57:40.337Z,11.50
2018-12-21T16:00:10.775Z,11.60
2018-12-21T16:02:39.731Z,11.60
2018-12-21T16:05:07.928Z,11.70
2018-12-21T16:07:36.089Z,11.70
2018-12-21T16:10:07.566Z,11.70
2018-12-21T16:12:35.764Z,11.80
2018-12-21T16:15:04.424Z,11.80
2018-12-21T16:17:32.569Z,11.80
2018-12-21T16:20:00.749Z,11.90
2018-12-21T16:22:29.863Z,11.90
2018-12-21T16:24:58.040Z,12.10
2018-12-21T16:27:26.173Z,12.20
2018-12-21T16:29:54.373Z,12.20
2018-12-21T16:32:22.506Z,12.20
2018-12-21T16:34:50.698Z,12.30
2018-12-21T16:37:18.842Z,12.30
2018-12-21T16:39:46.974Z,12.20
2018-12-21T16:42:15.169Z,12.10
2018-12-21T16:44:43.412Z,12.00
2018-12-21T16:47:11.552Z,12.00
2018-12-21T16:49:39.747Z,12.10
2018-12-21T16:52:07.891Z,12.10
2018-12-21T16:54:36.078Z,12.10
2018-12-21T16:57:04.376Z,12.00
2018-12-21T16:59:32.561Z,12.10
2018-12-21T17:02:00.693Z,12.10
2018-12-21T17:04:29.072Z,12.10
2018-12-21T17:06:57.273Z,12.20
2018-12-21T17:09:25.405Z,12.10
2018-12-21T17:11:53.543Z,12.10
2018-12-21T17:14:21.725Z,12.10
2018-12-21T17:16:49.865Z,12.20
2018-12-21T17:19:18.002Z,12.20
2018-12-21T17:21:46.178Z,12.30
2018-12-21T17:24:14.315Z,12.20
2018-12-21T17:26:42.499Z,12.10
2018-12-21T17:29:10.915Z,12.20
2018-12-21T17:31:39.109Z,12.40
2018-12-21T17:34:07.249Z,12.40
2018-12-21T17:36:35.435Z,12.30
2018-12-21T17:39:05.235Z,12.30
2018-12-21T17:41:33.378Z,12.30
2018-12-21T17:44:03.390Z,12.40
2018-12-21T17:46:31.553Z,12.40
2018-12-21T17:48:59.694Z,12.50
2018-12-21T17:51:27.881Z,12.40
2018-12-21T17:53:56.017Z,12.50
2018-12-21T17:56:29.899Z,12.70
2018-12-21T17:58:54.575Z,12.70
2018-12-21T18:01:22.708Z,12.80
2018-12-21T18:03:52.078Z,12.70
2018-12-21T18:06:20.526Z,12.90
2018-12-21T18:08:49.064Z,12.90
2018-12-21T18:11:17.219Z,12.70
2018-12-21T18:13:45.411Z,12.60
2018-12-21T18:16:14.564Z,12.50
2018-12-21T18:18:42.696Z,12.40
2018-12-21T18:21:10.827Z,12.30
2018-12-21T18:23:39.171Z,12.40
2018-12-21T18:26:07.308Z,12.50
2018-12-21T18:28:35.494Z,12.60
2018-12-21T18:31:07.560Z,12.70
2018-12-21T18:33:35.759Z,12.60
2018-12-21T18:36:03.894Z,12.40
2018-12-21T18:38:32.022Z,12.20
2018-12-21T18:41:00.214Z,11.90
2018-12-21T18:43:29.937Z,11.70
2018-12-21T18:45:58.139Z,11.60
2018-12-21T18:48:26.335Z,11.50
2018-12-21T18:50:54.471Z,11.40
2018-12-21T18:53:22.791Z,11.20
2018-12-21T18:55:51.003Z,11.10
2018-12-21T18:58:20.229Z,11.00
2018-12-21T19:00:48.463Z,10.80
2018-12-21T19:03:16.603Z,10.70
2018-12-21T19:05:44.814Z,10.60
2018-12-21T19:08:32.296Z,10.60
2018-12-21T19:11:00.489Z,10.50
2018-12-21T19:13:30.054Z,10.40
2018-12-21T19:15:58.191Z,10.50
2018-12-21T19:18:26.374Z,10.50
2018-12-21T19:20:54.512Z,10.60
2018-12-21T19:23:22.666Z,10.50
2018-12-21T19:25:50.867Z,10.60
2018-12-21T19:28:19.068Z,10.60
2018-12-21T19:30:47.222Z,10.70
2018-12-21T19:33:15.367Z,10.70
2018-12-21T19:35:43.569Z,10.60
2018-12-21T19:38:11.717Z,10.50
2018-12-21T19:40:39.852Z,10.40
2018-12-21T19:43:08.046Z,10.40
2018-12-21T19:45:36.185Z,10.50
2018-12-21T19:48:04.322Z,10.50
2018-12-21T19:50:32.567Z,10.50
2018-12-21T19:53:03.314Z,10.50
2018-12-21T19:55:40.073Z,10.40
2018-12-21T19:58:08.273Z,10.40
2018-12-21T20:00:36.413Z,10.40
2018-12-21T20:03:04.563Z,10.30
2018-12-21T20:05:32.763Z,10.40
2018-12-21T20:08:00.898Z,10.30
2018-12-21T20:10:29.034Z,10.30
2018-12-21T20:12:58.235Z,10.50
2018-12-21T20:15:26.429Z,10.40
2018-12-21T20:17:54.671Z,10.30
2018-12-21T20:20:22.869Z,10.30
2018-12-21T20:22:51.081Z,10.10
2018-12-21T20:25:19.463Z,10.00
2018-12-21T20:27:47.609Z,10.00
2018-12-21T20:30:16.394Z,10.00
2018-12-21T20:32:44.595Z,10.00
2018-12-21T20:35:12.802Z,10.00
2018-12-21T20:37:40.939Z,9.90
2018-12-21T20:40:11.359Z,9.90
2018-12-21T20:42:40.559Z,9.80
2018-12-21T20:45:10.573Z,9.90
2018-12-21T20:47:38.731Z,9.90
2018-12-21T20:50:11.593Z,10.00
2018-12-21T20:52:39.732Z,10.00
2018-12-21T20:55:09.410Z,10.00
2018-12-21T20:57:40.456Z,10.10
2018-12-21T21:00:15.537Z,10.10
2018-12-21T21:02:43.755Z,10.10
2018-12-21T21:05:11.929Z,10.10
2018-12-21T21:07:40.389Z,10.10
2018-12-21T21:10:10.762Z,10.10
2018-12-21T21:12:39.488Z,10.30
2018-12-21T21:15:10.516Z,10.20
2018-12-21T21:17:38.667Z,10.20
2018-12-21T21:20:12.062Z,10.20
2018-12-21T21:22:40.209Z,10.10
2018-12-21T21:25:08.390Z,10.10
2018-12-21T21:27:37.679Z,10.20
2018-12-21T21:30:12.963Z,10.30
2018-12-21T21:32:41.103Z,10.30
2018-12-21T21:35:09.317Z,10.30
2018-12-21T21:37:37.458Z,10.40
2018-12-21T21:40:09.852Z,10.40
2018-12-21T21:42:38.047Z,10.50
2018-12-21T21:45:08.555Z,10.50
2018-12-21T21:47:36.758Z,10.50
2018-12-21T21:50:08.146Z,10.50
2018-12-21T21:52:36.373Z,10.50
2018-12-21T21:55:04.503Z,10.50
2018-12-21T21:57:39.321Z,10.40
2018-12-21T22:00:07.131Z,10.40
2018-12-21T22:02:35.262Z,10.50
2018-12-21T22:05:03.399Z,10.50
2018-12-21T22:07:31.589Z,10.50
2018-12-21T22:09:59.726Z,10.60
2018-12-21T22:12:27.923Z,10.60
2018-12-21T22:14:56.069Z,10.70
2018-12-21T22:17:24.256Z,10.90
2018-12-21T22:19:52.405Z,10.90
2018-12-21T22:22:20.596Z,10.80
2018-12-21T22:24:48.743Z,10.90
2018-12-21T22:27:16.887Z,10.80
2018-12-21T22:29:45.059Z,10.80
2018-12-21T22:32:13.194Z,10.80
2018-12-21T22:34:41.339Z,10.80
2018-12-21T22:37:09.510Z,10.90
2018-12-21T22:39:37.662Z,10.90
2018-12-21T22:42:05.794Z,10.90
2018-12-21T22:44:33.959Z,10.80
2018-12-21T22:47:03.268Z,10.80
2018-12-21T22:49:31.394Z,10.80
2018-12-21T22:51:59.524Z,10.70
2018-12-21T22:54:27.694Z,10.70
2018-12-21T22:56:55.842Z,10.70
2018-12-21T22:59:23.984Z,10.70
2018-12-21T23:01:52.156Z,10.80
2018-12-21T23:04:20.362Z,10.90
2018-12-21T23:06:48.626Z,11.00
2018-12-21T23:09:16.780Z,11.00
2018-12-21T23:11:44.932Z,11.00
2018-12-21T23:14:13.165Z,11.10
